Prospector, Canada
Current Conditions -  °F | °C
As of 8:18 AM on Monday 22 Dec 2014 (Local Time) from CYQD Reporting Station
Light Snow Light Snow  
Wind Chill: -4°   Ceiling: 500
Heat Index: -4°   Visibility: 3mi
Dew Point: -5°   Wind: 3mph
Humidity: 93%   Direction: 40°NE
Pressure: 29.73"   Gusts: NA
Location:  52.95°N, 101.27°W
Report Text: CYQD 221418Z 04003KT 350V070 3SM -SN BR OVC005 M04/M05 A2973 RMK ST8 SLP085
Loading
Personal Weather Stations






























Interactive Weather Map New forecast layout! Learn more

10-Day Weather Forecast

Advertisements
Track Severe Weather on mobile